Time;durP1;ratioP1;P1;durP2;ratioP2;P2;SDS_P1;SDS_P2;PMS_P1;PMS_P2;Temp;Humidity;BMP_temperature;BMP_pressure;BME280_temperature;BME280_humidity;BME280_pressure;Samples;Min_cycle;Max_cycle;Signal;HPM_P1;HPM_P2
2022/06/09 00:01:42;;;;;;;13.18;10.07;;;;;;;;;;4900833;29;20234;-70
2022/06/09 00:04:15;;;;;;;10.77;9.88;;;;;;;;;;4919950;29;20258;-70
2022/06/09 00:07:05;;;;;;;10.95;10.00;;;;;;;;;;4918530;29;20231;-71
2022/06/09 00:09:40;;;;;;;11.02;10.02;;;;;;;;;;4945597;29;20669;-71
2022/06/09 00:12:06;;;;;;;10.63;9.82;;;;;;;;;;4916668;29;20231;-70
2022/06/09 00:14:32;;;;;;;11.15;10.23;;;;;;;;;;4913996;29;20697;-69
2022/06/09 00:16:58;;;;;;;11.48;10.57;;;;;;;;;;4943991;29;20234;-70
2022/06/09 00:19:24;;;;;;;11.80;10.90;;;;;;;;;;4904766;28;20250;-70
2022/06/09 00:21:50;;;;;;;12.27;11.27;;;;;;;;;;4911438;29;20227;-69
2022/06/09 00:24:17;;;;;;;11.68;10.73;;;;;;;;;;4902969;28;20227;-71
2022/06/09 00:26:43;;;;;;;8.48;7.78;;;;;;;;;;4924173;29;20721;-70
2022/06/09 00:29:09;;;;;;;7.45;6.75;;;;;;;;;;4943751;29;20243;-70
2022/06/09 00:31:35;;;;;;;6.20;5.65;;;;;;;;;;4932461;29;20725;-70
2022/06/09 00:34:04;;;;;;;6.38;5.90;;;;;;;;;;4933229;29;20247;-70
2022/06/09 00:36:30;;;;;;;6.03;5.55;;;;;;;;;;4937459;29;20318;-70
2022/06/09 00:38:59;;;;;;;10.13;5.75;;;;;;;;;;4945573;29;20258;-70
2022/06/09 00:41:25;;;;;;;5.65;5.10;;;;;;;;;;4957157;28;20601;-71
2022/06/09 00:43:51;;;;;;;6.03;5.53;;;;;;;;;;4946959;28;20625;-70
2022/06/09 00:46:27;;;;;;;5.15;4.80;;;;;;;;;;4924357;29;20326;-71
2022/06/09 00:48:58;;;;;;;6.10;5.38;;;;;;;;;;4918218;29;20242;-71
2022/06/09 00:51:44;;;;;;;5.32;4.93;;;;;;;;;;4937016;28;20238;-70
2022/06/09 00:54:25;;;;;;;6.20;5.60;;;;;;;;;;4918577;28;20646;-71
2022/06/09 00:57:04;;;;;;;5.88;5.03;;;;;;;;;;4900116;29;20233;-72
2022/06/09 00:59:30;;;;;;;5.70;5.18;;;;;;;;;;4924947;29;20876;-70
2022/06/09 01:02:02;;;;;;;5.85;5.32;;;;;;;;;;4926996;29;20227;-69
2022/06/09 01:04:29;;;;;;;5.75;5.15;;;;;;;;;;4928252;28;20334;-69
2022/06/09 01:06:58;;;;;;;6.35;5.75;;;;;;;;;;4922789;29;20239;-70
2022/06/09 01:09:26;;;;;;;6.68;6.18;;;;;;;;;;4920997;29;20705;-70
2022/06/09 01:11:53;;;;;;;6.95;6.15;;;;;;;;;;4919123;29;20673;-69
2022/06/09 01:14:37;;;;;;;7.05;6.35;;;;;;;;;;4917250;28;20294;-70
2022/06/09 01:17:12;;;;;;;6.78;6.13;;;;;;;;;;4903207;28;20233;-70
2022/06/09 01:19:47;;;;;;;6.90;6.20;;;;;;;;;;4942301;29;20234;-71
2022/06/09 01:22:50;;;;;;;6.45;5.95;;;;;;;;;;4948339;28;20242;-70
2022/06/09 01:25:36;;;;;;;7.85;6.43;;;;;;;;;;4935439;28;20698;-70
2022/06/09 01:28:11;;;;;;;6.65;6.15;;;;;;;;;;4926648;29;20262;-70
2022/06/09 01:30:43;;;;;;;6.75;6.18;;;;;;;;;;4932067;29;20243;-70
2022/06/09 01:33:12;;;;;;;7.43;6.72;;;;;;;;;;4949977;28;20242;-71
2022/06/09 01:35:42;;;;;;;6.70;6.20;;;;;;;;;;4917693;29;20704;-70
2022/06/09 01:38:10;;;;;;;6.72;6.13;;;;;;;;;;4936193;28;20231;-71
2022/06/09 01:40:37;;;;;;;6.88;6.38;;;;;;;;;;4890661;29;20267;-70
2022/06/09 01:43:04;;;;;;;6.72;6.22;;;;;;;;;;4934344;28;20236;-73
2022/06/09 01:45:38;;;;;;;7.18;6.57;;;;;;;;;;4924069;29;20615;-70
2022/06/09 01:48:15;;;;;;;8.07;6.70;;;;;;;;;;4950453;29;20238;-71
2022/06/09 01:50:57;;;;;;;7.45;6.85;;;;;;;;;;4888842;29;20235;-70
2022/06/09 01:53:31;;;;;;;7.07;6.50;;;;;;;;;;4924190;29;20293;-70
2022/06/09 01:56:07;;;;;;;7.57;6.97;;;;;;;;;;4961615;28;20289;-70
2022/06/09 01:58:44;;;;;;;8.05;7.25;;;;;;;;;;4921354;29;20226;-71
2022/06/09 02:01:13;;;;;;;8.60;7.68;;;;;;;;;;4921917;29;20626;-71
2022/06/09 02:03:43;;;;;;;9.93;9.05;;;;;;;;;;4919032;29;20247;-70
2022/06/09 02:06:10;;;;;;;9.55;8.73;;;;;;;;;;4904586;28;20628;-70
2022/06/09 02:08:39;;;;;;;10.20;9.30;;;;;;;;;;4939833;29;20229;-71
2022/06/09 02:11:07;;;;;;;10.98;9.93;;;;;;;;;;4935947;28;20676;-71
2022/06/09 02:13:41;;;;;;;12.48;11.38;;;;;;;;;;4943784;29;20262;-70
2022/06/09 02:16:12;;;;;;;12.32;11.02;;;;;;;;;;4919834;28;20728;-70
2022/06/09 02:18:40;;;;;;;13.05;11.75;;;;;;;;;;4939194;29;20241;-71
2022/06/09 02:21:06;;;;;;;13.57;12.38;;;;;;;;;;4937385;29;20214;-70
2022/06/09 02:23:32;;;;;;;14.25;12.90;;;;;;;;;;4946168;29;20226;-70
2022/06/09 02:26:00;;;;;;;13.77;12.57;;;;;;;;;;4923373;29;20318;-70
2022/06/09 02:28:26;;;;;;;15.05;13.65;;;;;;;;;;4921423;29;20337;-72
2022/06/09 02:30:53;;;;;;;14.57;13.07;;;;;;;;;;4939735;29;20228;-72
2022/06/09 02:33:19;;;;;;;14.82;13.45;;;;;;;;;;4890254;28;20311;-71
2022/06/09 02:35:45;;;;;;;14.32;12.93;;;;;;;;;;4925165;29;20222;-71
2022/06/09 02:38:11;;;;;;;15.73;14.18;;;;;;;;;;4947928;28;20223;-70
2022/06/09 02:40:41;;;;;;;16.52;15.02;;;;;;;;;;4922198;29;20227;-71
2022/06/09 02:43:08;;;;;;;17.65;15.80;;;;;;;;;;4923631;29;20231;-72
2022/06/09 02:45:34;;;;;;;17.15;15.48;;;;;;;;;;4947833;28;20664;-70
2022/06/09 02:48:01;;;;;;;19.90;17.90;;;;;;;;;;4929806;29;20222;-71
2022/06/09 02:50:27;;;;;;;18.27;16.40;;;;;;;;;;4936737;29;20254;-70
2022/06/09 02:52:53;;;;;;;19.73;17.63;;;;;;;;;;4908606;29;20251;-70
2022/06/09 02:55:20;;;;;;;20.30;18.30;;;;;;;;;;4922459;28;20255;-69
2022/06/09 02:57:46;;;;;;;20.80;18.70;;;;;;;;;;4926428;29;20290;-72
2022/06/09 03:00:15;;;;;;;23.92;19.92;;;;;;;;;;4929222;29;20277;-70
2022/06/09 03:02:55;;;;;;;22.20;19.83;;;;;;;;;;4944548;29;20721;-70
2022/06/09 03:05:21;;;;;;;22.25;20.05;;;;;;;;;;4963038;28;20285;-70
2022/06/09 03:07:47;;;;;;;21.85;19.45;;;;;;;;;;4941189;28;20253;-71
2022/06/09 03:10:16;;;;;;;24.15;21.40;;;;;;;;;;4928386;28;20682;-71
2022/06/09 03:12:42;;;;;;;22.45;20.20;;;;;;;;;;4940943;29;20227;-71
2022/06/09 03:15:10;;;;;;;24.85;21.85;;;;;;;;;;4939882;28;20732;-71
2022/06/09 03:17:38;;;;;;;26.20;22.10;;;;;;;;;;4922593;29;20224;-72
2022/06/09 03:20:06;;;;;;;26.42;23.55;;;;;;;;;;4936997;29;20290;-71
2022/06/09 03:22:33;;;;;;;27.60;24.05;;;;;;;;;;4921858;29;20231;-71
2022/06/09 03:25:00;;;;;;;28.35;23.40;;;;;;;;;;4929048;29;20299;-71
2022/06/09 03:27:26;;;;;;;29.80;25.52;;;;;;;;;;4926448;28;20223;-72
2022/06/09 03:29:52;;;;;;;28.60;25.52;;;;;;;;;;4926225;28;20234;-71
2022/06/09 03:32:18;;;;;;;31.67;26.45;;;;;;;;;;4923216;28;20286;-71
2022/06/09 03:34:44;;;;;;;29.90;26.90;;;;;;;;;;4943104;29;20230;-71
2022/06/09 03:37:13;;;;;;;32.38;27.00;;;;;;;;;;4932625;28;20297;-70
2022/06/09 03:39:39;;;;;;;31.92;27.67;;;;;;;;;;4946048;29;20226;-71
2022/06/09 03:42:05;;;;;;;32.92;28.48;;;;;;;;;;4933206;28;20232;-73
2022/06/09 03:44:31;;;;;;;33.05;28.08;;;;;;;;;;4946221;29;20238;-72
2022/06/09 03:46:57;;;;;;;35.30;28.58;;;;;;;;;;4959771;28;20313;-72
2022/06/09 03:49:26;;;;;;;37.33;29.55;;;;;;;;;;4925966;28;20279;-70
2022/06/09 03:51:52;;;;;;;36.40;29.27;;;;;;;;;;4911109;29;20231;-70
2022/06/09 03:54:18;;;;;;;34.27;29.20;;;;;;;;;;4962262;28;20226;-71
2022/06/09 03:56:50;;;;;;;33.78;28.75;;;;;;;;;;4924492;29;20416;-70
2022/06/09 03:59:16;;;;;;;35.28;29.88;;;;;;;;;;4924831;28;20775;-72
2022/06/09 04:01:42;;;;;;;33.70;28.52;;;;;;;;;;4910333;29;20227;-70
2022/06/09 04:04:08;;;;;;;34.78;29.40;;;;;;;;;;4943563;28;20299;-73
2022/06/09 04:06:37;;;;;;;39.13;30.20;;;;;;;;;;4953757;29;20254;-71
2022/06/09 04:09:06;;;;;;;33.58;29.70;;;;;;;;;;4928243;29;20279;-70
2022/06/09 04:11:32;;;;;;;36.70;29.73;;;;;;;;;;4919023;29;20235;-71
2022/06/09 04:13:59;;;;;;;36.03;30.65;;;;;;;;;;4936390;29;20238;-71
2022/06/09 04:16:36;;;;;;;37.70;31.67;;;;;;;;;;4922147;28;20321;-70
2022/06/09 04:19:04;;;;;;;35.60;29.13;;;;;;;;;;4926716;29;20237;-70
2022/06/09 04:21:33;;;;;;;42.97;31.35;;;;;;;;;;4952793;28;20227;-71
2022/06/09 04:23:59;;;;;;;37.70;30.02;;;;;;;;;;4953992;29;20236;-70
2022/06/09 04:26:28;;;;;;;38.55;31.42;;;;;;;;;;4930087;28;20226;-71
2022/06/09 04:28:54;;;;;;;37.00;31.35;;;;;;;;;;4939054;28;20239;-71
2022/06/09 04:31:25;;;;;;;36.35;31.00;;;;;;;;;;4919538;28;20230;-71
2022/06/09 04:33:57;;;;;;;35.70;31.10;;;;;;;;;;4942034;29;20235;-70
2022/06/09 04:36:32;;;;;;;36.08;29.88;;;;;;;;;;4910902;28;20282;-72
2022/06/09 04:39:11;;;;;;;35.10;30.23;;;;;;;;;;4951061;28;20367;-71
2022/06/09 04:41:40;;;;;;;39.70;30.20;;;;;;;;;;4940863;29;20670;-69
2022/06/09 04:44:20;;;;;;;36.45;30.27;;;;;;;;;;4921255;29;20223;-73
2022/06/09 04:46:47;;;;;;;32.05;28.55;;;;;;;;;;4905398;29;20220;-73
2022/06/09 04:49:23;;;;;;;32.35;28.63;;;;;;;;;;4926110;29;20643;-72
2022/06/09 04:52:03;;;;;;;33.83;29.27;;;;;;;;;;4948054;28;20614;-71
2022/06/09 04:54:36;;;;;;;33.33;28.23;;;;;;;;;;4931313;28;20237;-72
2022/06/09 04:57:06;;;;;;;30.95;27.65;;;;;;;;;;4913345;29;20306;-71
2022/06/09 04:59:44;;;;;;;33.42;29.50;;;;;;;;;;4939531;29;20223;-73
2022/06/09 05:02:10;;;;;;;31.98;28.42;;;;;;;;;;4911560;28;20232;-72
2022/06/09 05:04:36;;;;;;;34.63;28.58;;;;;;;;;;4889306;29;20258;-71
2022/06/09 05:07:03;;;;;;;31.58;28.27;;;;;;;;;;4934305;28;20242;-71
2022/06/09 05:09:31;;;;;;;34.67;29.58;;;;;;;;;;4939425;29;20223;-70
2022/06/09 05:12:01;;;;;;;33.85;29.83;;;;;;;;;;4920428;29;20246;-69
2022/06/09 05:14:51;;;;;;;33.00;28.52;;;;;;;;;;4909022;28;20223;-70
2022/06/09 05:17:18;;;;;;;31.55;28.25;;;;;;;;;;4952414;29;20238;-71
2022/06/09 05:19:45;;;;;;;32.05;28.55;;;;;;;;;;4925487;28;20233;-71
2022/06/09 05:22:22;;;;;;;31.60;27.98;;;;;;;;;;4915045;29;20773;-71
2022/06/09 05:24:51;;;;;;;31.98;28.60;;;;;;;;;;4935695;29;20748;-73
2022/06/09 05:27:17;;;;;;;35.50;28.85;;;;;;;;;;4951018;28;20226;-72
2022/06/09 05:29:45;;;;;;;34.72;28.98;;;;;;;;;;4901616;29;20211;-70
2022/06/09 05:32:12;;;;;;;31.70;28.13;;;;;;;;;;4883186;29;20225;-70
2022/06/09 05:34:38;;;;;;;32.10;29.00;;;;;;;;;;4934613;28;20238;-70
2022/06/09 05:37:04;;;;;;;34.20;29.73;;;;;;;;;;4904565;28;20589;-71
2022/06/09 05:44:50;;;;;;;33.78;29.65;;;;;;;;;;4934126;28;20229;-72
2022/06/09 05:45:13;;;;;;;31.05;27.58;;;;;;;;;;4921160;28;20230;-70
2022/06/09 05:47:46;;;;;;;30.48;26.85;;;;;;;;;;4903037;29;20223;-71
2022/06/09 05:50:13;;;;;;;31.10;25.75;;;;;;;;;;4929912;28;20234;-69
2022/06/09 05:52:39;;;;;;;28.30;25.52;;;;;;;;;;4947936;28;20235;-70
2022/06/09 05:55:07;;;;;;;29.42;26.08;;;;;;;;;;4900437;28;20246;-70
2022/06/09 05:57:33;;;;;;;27.85;25.05;;;;;;;;;;4913984;29;20224;-71
2022/06/09 05:59:59;;;;;;;28.67;25.20;;;;;;;;;;4926996;28;20281;-71
2022/06/09 06:02:26;;;;;;;27.25;24.48;;;;;;;;;;4928493;29;20310;-71
2022/06/09 06:04:52;;;;;;;27.73;24.13;;;;;;;;;;4920993;28;20257;-70
2022/06/09 06:07:18;;;;;;;26.85;23.98;;;;;;;;;;4928397;29;20701;-71
2022/06/09 06:09:51;;;;;;;27.67;24.63;;;;;;;;;;4884672;29;20216;-68
2022/06/09 06:12:17;;;;;;;26.83;23.98;;;;;;;;;;4928077;29;20239;-71
2022/06/09 06:14:46;;;;;;;27.63;24.05;;;;;;;;;;4899674;29;20223;-69
2022/06/09 06:17:12;;;;;;;25.52;22.95;;;;;;;;;;4912181;29;20215;-72
2022/06/09 06:19:40;;;;;;;28.40;22.90;;;;;;;;;;4920198;29;20219;-71
2022/06/09 06:22:08;;;;;;;27.05;24.05;;;;;;;;;;4899755;28;20737;-70
2022/06/09 06:24:35;;;;;;;27.52;24.63;;;;;;;;;;4934259;28;20226;-69
2022/06/09 06:27:04;;;;;;;27.73;24.90;;;;;;;;;;4949334;29;20258;-70
2022/06/09 06:29:30;;;;;;;28.33;25.27;;;;;;;;;;4896742;29;20229;-70
2022/06/09 06:31:56;;;;;;;31.17;24.83;;;;;;;;;;4881580;29;20240;-70
2022/06/09 06:34:22;;;;;;;26.33;23.33;;;;;;;;;;4928449;28;20234;-70
2022/06/09 06:36:48;;;;;;;26.10;23.48;;;;;;;;;;4947788;29;20234;-70
2022/06/09 06:39:14;;;;;;;26.45;22.58;;;;;;;;;;4927963;28;20860;-70
2022/06/09 06:41:40;;;;;;;26.25;22.08;;;;;;;;;;4914146;29;20223;-70
2022/06/09 06:44:06;;;;;;;24.15;21.50;;;;;;;;;;4896621;28;20232;-70
2022/06/09 06:46:32;;;;;;;24.58;22.02;;;;;;;;;;4936817;29;20309;-71
2022/06/09 06:49:01;;;;;;;22.55;19.85;;;;;;;;;;4923199;28;20776;-70
2022/06/09 06:51:27;;;;;;;21.20;18.95;;;;;;;;;;4910517;29;21052;-71
2022/06/09 06:53:55;;;;;;;26.42;18.55;;;;;;;;;;4916547;29;20327;-70
2022/06/09 06:56:21;;;;;;;22.98;18.58;;;;;;;;;;4912129;29;20227;-70
2022/06/09 06:58:48;;;;;;;20.23;18.13;;;;;;;;;;4915003;29;20223;-71
2022/06/09 07:01:15;;;;;;;19.48;17.60;;;;;;;;;;4915183;28;20211;-69
2022/06/09 07:03:41;;;;;;;20.42;17.92;;;;;;;;;;4916094;29;20270;-70
2022/06/09 07:06:09;;;;;;;19.90;17.00;;;;;;;;;;4917050;29;20216;-70
2022/06/09 07:08:36;;;;;;;20.50;17.17;;;;;;;;;;4936935;29;20228;-70
2022/06/09 07:11:02;;;;;;;21.15;17.33;;;;;;;;;;4883752;29;20286;-70
2022/06/09 07:13:28;;;;;;;19.63;16.67;;;;;;;;;;4914861;29;20226;-69
2022/06/09 07:15:54;;;;;;;17.48;15.65;;;;;;;;;;4931946;28;20233;-71
2022/06/09 07:18:20;;;;;;;20.77;15.55;;;;;;;;;;4911985;29;20220;-70
2022/06/09 07:20:46;;;;;;;14.77;13.38;;;;;;;;;;4908406;29;20215;-70
2022/06/09 07:23:12;;;;;;;16.27;12.77;;;;;;;;;;4926596;28;20309;-70
2022/06/09 07:25:39;;;;;;;15.07;11.55;;;;;;;;;;4882534;29;20227;-70
2022/06/09 07:28:09;;;;;;;12.55;10.25;;;;;;;;;;4895466;28;20231;-70
2022/06/09 07:30:38;;;;;;;12.88;10.30;;;;;;;;;;4900106;29;20241;-71
2022/06/09 07:33:05;;;;;;;14.88;11.57;;;;;;;;;;4900891;28;20239;-71
2022/06/09 07:35:31;;;;;;;17.48;14.07;;;;;;;;;;4932105;29;20467;-68
2022/06/09 07:37:58;;;;;;;13.77;11.88;;;;;;;;;;4932205;29;20226;-69
2022/06/09 07:40:24;;;;;;;14.40;11.85;;;;;;;;;;4911537;29;20234;-71
2022/06/09 07:42:50;;;;;;;17.42;11.25;;;;;;;;;;4895893;29;20251;-70
2022/06/09 07:45:16;;;;;;;14.95;10.77;;;;;;;;;;4910374;29;20227;-71
2022/06/09 07:47:42;;;;;;;13.60;10.55;;;;;;;;;;4911949;29;20224;-69
2022/06/09 07:50:09;;;;;;;12.88;10.02;;;;;;;;;;4911304;29;20289;-72
2022/06/09 07:52:35;;;;;;;13.60;9.43;;;;;;;;;;4896624;29;20231;-72
2022/06/09 07:55:02;;;;;;;11.68;8.98;;;;;;;;;;4874286;29;20881;-71
2022/06/09 07:57:28;;;;;;;13.30;10.60;;;;;;;;;;4882485;29;20497;-71
2022/06/09 07:59:57;;;;;;;14.73;9.40;;;;;;;;;;4930479;29;20305;-71
2022/06/09 08:02:23;;;;;;;14.98;8.82;;;;;;;;;;4924629;29;20231;-71
2022/06/09 08:04:52;;;;;;;11.23;9.18;;;;;;;;;;4901159;29;20224;-73
2022/06/09 08:07:18;;;;;;;13.10;8.80;;;;;;;;;;4883272;28;20318;-72
2022/06/09 08:09:45;;;;;;;10.75;9.00;;;;;;;;;;4919122;29;20231;-70
2022/06/09 08:12:11;;;;;;;10.68;8.55;;;;;;;;;;4927128;28;20226;-70
2022/06/09 08:14:37;;;;;;;13.77;9.68;;;;;;;;;;4896468;29;20242;-70
2022/06/09 08:17:05;;;;;;;10.20;8.43;;;;;;;;;;4909663;28;20227;-71
2022/06/09 08:19:31;;;;;;;14.10;8.77;;;;;;;;;;4905230;29;20709;-71
2022/06/09 08:21:57;;;;;;;13.05;8.63;;;;;;;;;;4880318;29;20235;-71
2022/06/09 08:24:23;;;;;;;9.63;8.52;;;;;;;;;;4914545;28;20238;-71
2022/06/09 08:26:49;;;;;;;13.88;8.60;;;;;;;;;;4931659;28;20229;-71
2022/06/09 08:29:15;;;;;;;11.75;8.35;;;;;;;;;;4912987;29;20359;-70
2022/06/09 08:31:43;;;;;;;12.30;8.77;;;;;;;;;;4897658;29;20590;-70
2022/06/09 08:34:11;;;;;;;11.80;9.00;;;;;;;;;;4898189;28;20314;-71
2022/06/09 08:36:38;;;;;;;14.55;9.13;;;;;;;;;;4921062;28;20230;-69
2022/06/09 08:39:04;;;;;;;10.93;9.02;;;;;;;;;;4903060;29;20614;-69
2022/06/09 08:41:39;;;;;;;13.70;8.98;;;;;;;;;;4934436;28;20223;-70
2022/06/09 08:44:24;;;;;;;12.27;8.65;;;;;;;;;;4906755;29;20257;-70
2022/06/09 08:46:54;;;;;;;11.93;8.63;;;;;;;;;;4915261;29;20235;-70
2022/06/09 08:49:26;;;;;;;11.88;8.30;;;;;;;;;;4910948;29;20223;-70
2022/06/09 08:51:52;;;;;;;13.18;8.40;;;;;;;;;;4893083;29;20410;-71
2022/06/09 08:54:21;;;;;;;12.05;8.80;;;;;;;;;;4904139;29;20226;-70
2022/06/09 08:56:47;;;;;;;10.07;8.00;;;;;;;;;;4896368;29;20250;-71
2022/06/09 08:59:16;;;;;;;11.27;8.82;;;;;;;;;;4911699;28;20319;-73
2022/06/09 09:01:53;;;;;;;11.90;8.30;;;;;;;;;;4926996;29;20251;-73
2022/06/09 09:04:29;;;;;;;9.10;8.18;;;;;;;;;;4904875;29;20241;-71
2022/06/09 09:07:25;;;;;;;11.18;8.57;;;;;;;;;;4896343;29;20604;-71
2022/06/09 09:09:55;;;;;;;11.77;8.30;;;;;;;;;;4933135;29;20278;-71
2022/06/09 09:12:38;;;;;;;15.48;10.73;;;;;;;;;;4896595;29;20235;-71
2022/06/09 09:15:04;;;;;;;12.77;8.30;;;;;;;;;;4895319;28;20246;-70
2022/06/09 09:17:54;;;;;;;10.48;8.00;;;;;;;;;;4931422;29;20227;-71
2022/06/09 09:20:22;;;;;;;11.23;8.07;;;;;;;;;;4935413;28;20716;-71
2022/06/09 09:22:52;;;;;;;11.65;7.55;;;;;;;;;;4911184;29;20306;-71
2022/06/09 09:25:47;;;;;;;8.88;7.93;;;;;;;;;;4932586;29;20246;-73
2022/06/09 09:28:23;;;;;;;12.98;7.93;;;;;;;;;;4915577;29;20234;-70
2022/06/09 09:31:20;;;;;;;8.18;6.78;;;;;;;;;;4896195;29;20281;-73
2022/06/09 09:33:46;;;;;;;8.82;7.53;;;;;;;;;;4898424;29;20235;-70
2022/06/09 09:36:23;;;;;;;7.88;6.38;;;;;;;;;;4880402;28;20224;-70
2022/06/09 09:38:55;;;;;;;10.68;7.30;;;;;;;;;;4917047;29;20665;-70
2022/06/09 09:41:33;;;;;;;11.57;7.13;;;;;;;;;;4909561;29;20728;-71
2022/06/09 09:44:00;;;;;;;7.95;6.55;;;;;;;;;;4910443;29;20231;-73
2022/06/09 09:46:33;;;;;;;9.00;6.45;;;;;;;;;;4880407;29;20338;-71
2022/06/09 09:49:00;;;;;;;11.27;7.15;;;;;;;;;;4888821;29;20254;-71
2022/06/09 09:51:37;;;;;;;10.98;6.95;;;;;;;;;;4914896;28;20277;-71
2022/06/09 09:54:19;;;;;;;7.05;6.43;;;;;;;;;;4932144;29;20326;-72
2022/06/09 09:56:46;;;;;;;8.52;6.30;;;;;;;;;;4930902;28;20667;-71
2022/06/09 09:59:23;;;;;;;7.68;5.63;;;;;;;;;;4915801;29;21166;-72
2022/06/09 10:10:26;;;;;;;6.82;4.68;;;;;;;;;;4927824;28;20234;-71
2022/06/09 10:12:56;;;;;;;5.20;4.10;;;;;;;;;;4919016;29;20860;-71
2022/06/09 10:15:23;;;;;;;8.98;4.50;;;;;;;;;;4903935;28;20251;-70
2022/06/09 10:18:06;;;;;;;4.63;3.78;;;;;;;;;;4927873;29;20223;-71
2022/06/09 10:20:50;;;;;;;3.88;3.35;;;;;;;;;;4949009;28;20256;-70
2022/06/09 10:23:43;;;;;;;6.72;4.10;;;;;;;;;;4944047;28;20230;-70
2022/06/09 10:26:21;;;;;;;5.55;3.90;;;;;;;;;;4917629;28;20231;-70
2022/06/09 10:28:49;;;;;;;6.10;4.80;;;;;;;;;;4919138;29;20377;-70
2022/06/09 10:31:16;;;;;;;5.53;5.00;;;;;;;;;;4912221;28;20231;-70
2022/06/09 10:34:17;;;;;;;6.88;6.18;;;;;;;;;;4949828;29;20712;-70
2022/06/09 10:36:48;;;;;;;8.35;6.38;;;;;;;;;;4945172;29;20233;-71
2022/06/09 10:39:14;;;;;;;7.35;5.55;;;;;;;;;;4940889;28;20223;-70
2022/06/09 10:41:55;;;;;;;8.27;5.00;;;;;;;;;;4945033;29;20238;-71
2022/06/09 10:44:34;;;;;;;4.82;4.30;;;;;;;;;;4912638;29;20230;-70
2022/06/09 10:55:33;;;;;;;5.15;3.50;;;;;;;;;;4944600;28;20607;-70
2022/06/09 10:58:15;;;;;;;4.45;3.75;;;;;;;;;;4914667;29;20231;-69
2022/06/09 11:00:45;;;;;;;5.20;4.30;;;;;;;;;;4930191;28;20584;-70
2022/06/09 11:03:32;;;;;;;4.00;3.40;;;;;;;;;;4914105;28;20265;-70
2022/06/09 11:06:36;;;;;;;4.45;3.17;;;;;;;;;;4931018;29;20794;-71
2022/06/09 11:09:17;;;;;;;5.85;3.17;;;;;;;;;;4934204;29;20285;-71
2022/06/09 11:11:55;;;;;;;5.22;3.50;;;;;;;;;;4956672;28;20935;-71
2022/06/09 11:14:37;;;;;;;5.00;3.25;;;;;;;;;;4912836;28;20227;-71
2022/06/09 11:17:09;;;;;;;4.13;2.90;;;;;;;;;;4914106;29;20228;-70
2022/06/09 11:19:48;;;;;;;5.05;3.50;;;;;;;;;;4928273;29;20234;-71
2022/06/09 11:22:34;;;;;;;7.32;3.78;;;;;;;;;;4910627;28;20235;-71
2022/06/09 11:25:30;;;;;;;4.75;3.38;;;;;;;;;;4930926;28;20231;-73
2022/06/09 11:28:04;;;;;;;4.43;3.40;;;;;;;;;;4898648;29;20254;-71
2022/06/09 11:30:33;;;;;;;5.13;3.15;;;;;;;;;;4915254;29;20227;-71
2022/06/09 11:33:20;;;;;;;6.93;4.45;;;;;;;;;;4939991;29;20231;-71
2022/06/09 11:35:57;;;;;;;6.07;4.10;;;;;;;;;;4932948;28;20230;-72
2022/06/09 11:38:50;;;;;;;5.47;3.90;;;;;;;;;;4915239;28;20256;-71
2022/06/09 11:41:30;;;;;;;3.85;3.42;;;;;;;;;;4946338;28;20586;-71
2022/06/09 11:44:08;;;;;;;3.60;2.70;;;;;;;;;;4928608;29;20330;-73
2022/06/09 11:46:39;;;;;;;2.60;2.38;;;;;;;;;;4914739;29;20724;-72
2022/06/09 11:49:07;;;;;;;3.55;2.92;;;;;;;;;;4915447;28;20262;-71
2022/06/09 11:51:33;;;;;;;2.88;2.58;;;;;;;;;;4925949;29;20602;-72
2022/06/09 11:54:01;;;;;;;3.60;2.72;;;;;;;;;;4896467;29;20618;-69
2022/06/09 11:56:36;;;;;;;4.97;3.63;;;;;;;;;;4934705;28;20242;-71
2022/06/09 11:59:11;;;;;;;4.35;3.67;;;;;;;;;;4929032;28;20223;-71
2022/06/09 12:01:37;;;;;;;4.82;3.70;;;;;;;;;;4948945;29;20988;-71
2022/06/09 12:04:26;;;;;;;4.75;3.60;;;;;;;;;;4942997;28;20239;-70
2022/06/09 12:07:29;;;;;;;5.88;3.80;;;;;;;;;;4927057;29;20223;-69
2022/06/09 12:10:17;;;;;;;5.55;4.30;;;;;;;;;;4954913;28;20254;-70
2022/06/09 12:12:44;;;;;;;5.03;3.20;;;;;;;;;;4893347;29;20235;-71
2022/06/09 12:15:46;;;;;;;6.40;3.30;;;;;;;;;;4883204;28;20287;-70
2022/06/09 12:18:12;;;;;;;5.10;3.25;;;;;;;;;;4931076;29;20286;-71
2022/06/09 12:20:49;;;;;;;3.58;2.75;;;;;;;;;;4940540;28;20322;-72
2022/06/09 12:23:34;;;;;;;3.45;2.80;;;;;;;;;;4934869;29;20229;-72
2022/06/09 12:26:10;;;;;;;4.30;3.05;;;;;;;;;;4929058;29;20231;-70
2022/06/09 12:28:43;;;;;;;4.13;2.90;;;;;;;;;;4947579;28;20230;-70
2022/06/09 12:31:11;;;;;;;4.15;3.03;;;;;;;;;;4923608;28;20228;-72
2022/06/09 12:33:37;;;;;;;3.75;2.75;;;;;;;;;;4916036;29;20299;-69
2022/06/09 12:36:12;;;;;;;3.10;2.60;;;;;;;;;;4913008;29;20228;-70
2022/06/09 12:38:50;;;;;;;3.22;2.70;;;;;;;;;;4914270;29;20254;-69
2022/06/09 12:41:40;;;;;;;3.55;2.90;;;;;;;;;;4899462;28;20262;-72
2022/06/09 12:44:25;;;;;;;5.40;2.40;;;;;;;;;;4910691;28;20262;-73
2022/06/09 12:46:58;;;;;;;4.45;3.03;;;;;;;;;;4942255;28;20228;-69
2022/06/09 12:49:31;;;;;;;4.07;2.80;;;;;;;;;;4928366;29;20234;-72
2022/06/09 12:52:03;;;;;;;3.50;2.45;;;;;;;;;;4894609;29;20598;-73
2022/06/09 12:54:36;;;;;;;3.78;2.38;;;;;;;;;;4896450;29;20227;-72
2022/06/09 12:57:21;;;;;;;3.65;2.72;;;;;;;;;;4909108;29;20282;-71
2022/06/09 13:00:08;;;;;;;4.90;2.17;;;;;;;;;;4934968;28;20242;-70
2022/06/09 13:02:36;;;;;;;3.47;2.22;;;;;;;;;;4896643;29;20226;-72
2022/06/09 13:05:34;;;;;;;3.35;2.05;;;;;;;;;;4932361;29;20286;-72
2022/06/09 13:08:16;;;;;;;3.08;1.98;;;;;;;;;;4905189;29;20227;-69
2022/06/09 13:10:46;;;;;;;2.58;1.90;;;;;;;;;;4901478;28;20277;-71
2022/06/09 13:13:24;;;;;;;3.28;2.33;;;;;;;;;;4911950;29;20250;-69
2022/06/09 13:16:02;;;;;;;2.47;2.10;;;;;;;;;;4909162;29;20597;-71
2022/06/09 13:18:29;;;;;;;3.40;2.17;;;;;;;;;;4897933;29;20233;-70
2022/06/09 13:21:02;;;;;;;3.15;2.42;;;;;;;;;;4946269;29;20230;-69
2022/06/09 13:23:31;;;;;;;4.85;3.00;;;;;;;;;;4894366;29;20310;-70
2022/06/09 13:25:58;;;;;;;4.95;3.05;;;;;;;;;;4957111;28;20230;-70
2022/06/09 13:28:45;;;;;;;3.83;2.50;;;;;;;;;;4919655;28;20373;-72
2022/06/09 13:31:37;;;;;;;2.85;1.95;;;;;;;;;;4916460;28;20227;-71
2022/06/09 13:34:12;;;;;;;3.00;1.90;;;;;;;;;;4918217;28;20231;-69
2022/06/09 13:36:43;;;;;;;3.13;2.17;;;;;;;;;;4934469;28;20214;-73
2022/06/09 13:39:28;;;;;;;3.30;2.00;;;;;;;;;;4917190;29;20219;-69
2022/06/09 13:42:17;;;;;;;3.38;2.10;;;;;;;;;;4929005;29;20675;-71
2022/06/09 13:44:55;;;;;;;3.40;2.30;;;;;;;;;;4923956;29;20693;-71
2022/06/09 13:47:23;;;;;;;3.67;2.25;;;;;;;;;;4942745;28;20288;-72
2022/06/09 13:50:17;;;;;;;4.75;2.60;;;;;;;;;;4916578;29;20223;-69
2022/06/09 13:52:46;;;;;;;2.78;2.25;;;;;;;;;;4928893;29;20761;-70
2022/06/09 13:55:22;;;;;;;3.00;1.60;;;;;;;;;;4920858;29;20231;-72
2022/06/09 13:57:53;;;;;;;2.70;1.70;;;;;;;;;;4926582;29;20227;-73
2022/06/09 14:00:24;;;;;;;2.80;1.42;;;;;;;;;;4900667;29;20227;-70
2022/06/09 14:03:03;;;;;;;3.80;1.55;;;;;;;;;;4899123;29;20278;-70
2022/06/09 14:05:31;;;;;;;2.20;1.40;;;;;;;;;;4934918;28;20237;-71
2022/06/09 14:07:58;;;;;;;2.10;1.48;;;;;;;;;;4923774;29;20239;-72
2022/06/09 14:10:25;;;;;;;1.70;1.60;;;;;;;;;;4899192;28;20254;-71
2022/06/09 14:12:51;;;;;;;1.70;1.60;;;;;;;;;;4902251;29;20729;-71
2022/06/09 14:15:17;;;;;;;2.63;1.60;;;;;;;;;;4913681;29;20234;-71
2022/06/09 14:17:48;;;;;;;2.22;1.58;;;;;;;;;;4876790;29;20253;-70
2022/06/09 14:20:15;;;;;;;2.35;1.52;;;;;;;;;;4912289;29;20219;-72
2022/06/09 14:22:45;;;;;;;1.65;1.55;;;;;;;;;;4915825;29;20233;-71
2022/06/09 14:25:11;;;;;;;2.55;1.60;;;;;;;;;;4905216;29;20259;-72
2022/06/09 14:27:38;;;;;;;2.13;1.20;;;;;;;;;;4893203;29;20227;-72
2022/06/09 14:30:05;;;;;;;1.52;1.15;;;;;;;;;;4895692;29;20631;-70
2022/06/09 14:32:31;;;;;;;2.45;1.60;;;;;;;;;;4892744;29;20235;-70
2022/06/09 14:34:57;;;;;;;2.53;1.40;;;;;;;;;;4926001;29;20608;-71
2022/06/09 14:37:24;;;;;;;4.03;1.70;;;;;;;;;;4897829;29;20242;-71
2022/06/09 14:39:53;;;;;;;1.63;1.40;;;;;;;;;;4899762;29;20231;-71
2022/06/09 14:42:19;;;;;;;1.45;1.35;;;;;;;;;;4917414;28;20622;-70
2022/06/09 14:44:46;;;;;;;2.28;1.60;;;;;;;;;;4926134;29;20237;-69
2022/06/09 14:47:19;;;;;;;2.10;1.50;;;;;;;;;;4924541;29;20317;-71
2022/06/09 14:49:46;;;;;;;3.13;1.70;;;;;;;;;;4875565;29;20305;-71
2022/06/09 14:52:15;;;;;;;1.80;1.50;;;;;;;;;;4921629;28;20305;-70
2022/06/09 14:54:42;;;;;;;2.83;1.13;;;;;;;;;;4908905;29;20710;-69
2022/06/09 14:57:12;;;;;;;1.30;1.20;;;;;;;;;;4917388;29;20615;-69
2022/06/09 14:59:38;;;;;;;1.95;1.23;;;;;;;;;;4895626;29;20254;-69
2022/06/09 15:02:06;;;;;;;2.92;1.40;;;;;;;;;;4931798;28;20262;-70
2022/06/09 15:04:32;;;;;;;3.25;1.40;;;;;;;;;;4899940;29;20231;-69
2022/06/09 15:06:59;;;;;;;2.85;1.63;;;;;;;;;;4898288;29;20314;-69
2022/06/09 15:09:27;;;;;;;2.55;1.50;;;;;;;;;;4917481;29;20218;-70
2022/06/09 15:11:53;;;;;;;2.53;1.80;;;;;;;;;;4917245;29;20242;-69
2022/06/09 15:14:19;;;;;;;2.08;1.48;;;;;;;;;;4899566;29;20266;-69
2022/06/09 15:16:46;;;;;;;2.30;1.55;;;;;;;;;;4938311;29;20233;-70